createdAt,value
2023-05-02T00:00:50.330Z,99077.63
2023-05-02T00:03:17.061Z,99074.91
2023-05-02T00:05:43.967Z,99079.06
2023-05-02T00:08:12.090Z,99074.28
2023-05-02T00:10:38.853Z,99078.59
2023-05-02T00:13:05.499Z,99074.63
2023-05-02T00:15:32.418Z,99072.22
2023-05-02T00:17:58.942Z,99062.78
2023-05-02T00:20:25.782Z,99067.09
2023-05-02T00:22:52.333Z,99068.22
2023-05-02T00:25:20.468Z,99074.63
2023-05-02T00:27:47.105Z,99076.19
2023-05-02T00:30:14.515Z,99077.91
2023-05-02T00:32:41.100Z,99074.25
2023-05-02T00:35:08.685Z,99069.78
2023-05-02T00:37:35.384Z,99070.75
2023-05-02T00:40:02.137Z,99065.50
2023-05-02T00:42:30.294Z,99069.69
2023-05-02T00:44:56.826Z,99075.00
2023-05-02T00:47:23.703Z,99075.78
2023-05-02T00:49:50.560Z,99074.81
2023-05-02T00:52:17.116Z,99074.66
2023-05-02T00:54:43.950Z,99082.69
2023-05-02T00:57:10.711Z,99072.78
2023-05-02T00:59:39.310Z,99070.09
2023-05-02T01:02:25.852Z,99078.44
2023-05-02T01:05:02.183Z,99078.94
2023-05-02T01:07:54.631Z,99084.84
2023-05-02T01:10:32.006Z,99090.78
2023-05-02T01:13:03.260Z,99089.81
2023-05-02T01:15:32.859Z,99093.84
2023-05-02T01:18:01.807Z,99100.25
2023-05-02T01:20:30.807Z,99097.38
2023-05-02T01:23:03.100Z,99101.06
2023-05-02T01:25:37.120Z,99104.22
2023-05-02T01:28:14.668Z,99104.41
2023-05-02T01:30:46.332Z,99107.75
2023-05-02T01:33:16.000Z,99111.91
2023-05-02T01:35:43.706Z,99107.63
2023-05-02T01:38:14.758Z,99117.00
2023-05-02T01:40:44.710Z,99106.94
2023-05-02T01:43:13.213Z,99106.16
2023-05-02T01:45:43.754Z,99112.88
2023-05-02T01:48:10.849Z,99116.88
2023-05-02T01:50:39.368Z,99107.13
2023-05-02T01:53:08.361Z,99110.94
2023-05-02T01:55:36.946Z,99118.63
2023-05-02T01:58:04.967Z,99121.19
2023-05-02T02:00:32.900Z,99119.09
2023-05-02T02:03:02.183Z,99114.16
2023-05-02T02:05:29.206Z,99122.44
2023-05-02T02:07:55.776Z,99125.00
2023-05-02T02:10:24.062Z,99131.06
2023-05-02T02:12:54.946Z,99131.38
2023-05-02T02:15:27.502Z,99123.53
2023-05-02T02:17:59.824Z,99130.09
2023-05-02T02:20:29.410Z,99127.22
2023-05-02T02:22:57.983Z,99126.25
2023-05-02T02:25:25.760Z,99124.94
2023-05-02T02:27:52.858Z,99118.41
2023-05-02T02:30:19.439Z,99130.22
2023-05-02T02:32:46.069Z,99129.53
2023-05-02T02:35:12.779Z,99121.25
2023-05-02T02:37:47.042Z,99132.91
2023-05-02T02:40:19.152Z,99136.09
2023-05-02T02:42:55.388Z,99137.22
2023-05-02T02:45:30.309Z,99136.41
2023-05-02T02:48:05.245Z,99140.75
2023-05-02T02:50:36.525Z,99139.94
2023-05-02T02:53:07.938Z,99147.91
2023-05-02T02:55:40.532Z,99144.91
2023-05-02T02:58:25.600Z,99142.97
2023-05-02T03:00:53.157Z,99153.03
2023-05-02T03:03:22.310Z,99160.88
2023-05-02T03:05:49.303Z,99162.47
2023-05-02T03:08:17.215Z,99167.91
2023-05-02T03:10:43.882Z,99169.81
2023-05-02T03:13:10.559Z,99168.69
2023-05-02T03:16:06.418Z,99174.91
2023-05-02T03:18:33.108Z,99174.13
2023-05-02T03:20:59.579Z,99189.28
2023-05-02T03:23:27.502Z,99183.84
2023-05-02T03:25:54.054Z,99194.25
2023-05-02T03:28:20.565Z,99189.13
2023-05-02T03:30:47.244Z,99186.91
2023-05-02T03:33:13.959Z,99189.91
2023-05-02T03:35:40.517Z,99197.75
2023-05-02T03:38:07.082Z,99196.63
2023-05-02T03:40:35.127Z,99194.53
2023-05-02T03:43:01.709Z,99199.78
2023-05-02T03:45:28.288Z,99199.47
2023-05-02T03:47:55.123Z,99200.28
2023-05-02T03:50:22.542Z,99199.78
2023-05-02T03:52:49.093Z,99204.09
2023-05-02T03:55:15.658Z,99206.03
2023-05-02T03:57:43.537Z,99213.06
2023-05-02T04:00:11.430Z,99213.06
2023-05-02T04:02:38.319Z,99212.75
2023-05-02T04:05:05.890Z,99220.09
2023-05-02T04:07:32.444Z,99223.59
2023-05-02T04:09:59.267Z,99226.31
2023-05-02T04:12:26.215Z,99228.41
2023-05-02T04:14:54.147Z,99235.09
2023-05-02T04:17:21.360Z,99239.91
2023-05-02T04:19:47.891Z,99249.34
2023-05-02T04:22:14.560Z,99247.44
2023-05-02T04:24:41.109Z,99253.34
2023-05-02T04:27:07.831Z,99242.81
2023-05-02T04:29:34.596Z,99254.63
2023-05-02T04:32:02.497Z,99255.25
2023-05-02T04:34:29.078Z,99259.56
2023-05-02T04:36:55.780Z,99264.38
2023-05-02T04:39:22.284Z,99268.69
2023-05-02T04:41:49.133Z,99268.06
2023-05-02T04:44:15.640Z,99277.97
2023-05-02T04:46:42.204Z,99281.19
2023-05-02T04:49:10.186Z,99284.06
2023-05-02T04:51:36.919Z,99280.41
2023-05-02T04:54:03.517Z,99288.75
2023-05-02T04:56:30.086Z,99290.81
2023-05-02T04:58:56.610Z,99291.31
2023-05-02T05:01:24.166Z,99300.44
2023-05-02T05:03:50.875Z,99300.59
2023-05-02T05:06:18.964Z,99310.34
2023-05-02T05:08:45.515Z,99311.63
2023-05-02T05:11:12.192Z,99316.59
2023-05-02T05:13:38.984Z,99323.50
2023-05-02T05:16:06.157Z,99327.19
2023-05-02T05:18:32.791Z,99326.72
2023-05-02T05:20:59.451Z,99331.69
2023-05-02T05:23:27.362Z,99324.50
2023-05-02T05:25:53.881Z,99327.06
2023-05-02T05:28:20.439Z,99335.88
2023-05-02T05:30:47.016Z,99338.13
2023-05-02T05:33:13.784Z,99339.25
2023-05-02T05:35:40.553Z,99348.06
2023-05-02T05:38:07.090Z,99347.59
2023-05-02T05:40:35.163Z,99352.56
2023-05-02T05:43:01.671Z,99362.63
2023-05-02T05:45:28.234Z,99359.28
2023-05-02T05:47:54.869Z,99363.78
2023-05-02T05:50:21.452Z,99368.56
2023-05-02T05:52:48.098Z,99365.84
2023-05-02T05:55:14.680Z,99374.66
2023-05-02T05:57:42.621Z,99377.88
2023-05-02T06:00:10.164Z,99373.41
2023-05-02T06:02:36.798Z,99375.00
2023-05-02T06:05:03.702Z,99381.38
2023-05-02T06:07:30.491Z,99385.72
2023-05-02T06:09:57.046Z,99380.25
2023-05-02T06:12:23.600Z,99390.97
2023-05-02T06:14:51.595Z,99394.78
2023-05-02T06:17:18.252Z,99396.41
2023-05-02T06:19:44.966Z,99398.81
2023-05-02T06:22:12.425Z,99405.53
2023-05-02T06:24:39.027Z,99407.59
2023-05-02T06:27:05.590Z,99413.84
2023-05-02T06:29:32.191Z,99419.00
2023-05-02T06:32:00.263Z,99422.03
2023-05-02T06:34:26.976Z,99425.03
2023-05-02T06:36:54.853Z,99427.75
2023-05-02T06:39:21.398Z,99424.84
2023-05-02T06:41:47.984Z,99425.81
2023-05-02T06:44:14.569Z,99426.47
2023-05-02T06:46:41.269Z,99429.97
2023-05-02T06:49:09.221Z,99437.50
2023-05-02T06:51:35.732Z,99430.91
2023-05-02T06:54:02.508Z,99442.78
2023-05-02T06:56:29.221Z,99440.22
2023-05-02T06:58:55.803Z,99433.66
2023-05-02T07:01:22.331Z,99447.28
2023-05-02T07:03:49.048Z,99450.00
2023-05-02T07:06:17.033Z,99450.63
2023-05-02T07:08:43.593Z,99454.31
2023-05-02T07:11:10.236Z,99455.59
2023-05-02T07:13:36.913Z,99465.53
2023-05-02T07:16:03.966Z,99455.75
2023-05-02T07:18:30.573Z,99461.19
2023-05-02T07:20:57.120Z,99472.22
2023-05-02T07:23:27.282Z,99470.75
2023-05-02T07:25:53.821Z,99474.41
2023-05-02T07:28:20.374Z,99479.91
2023-05-02T07:30:49.343Z,99468.34
2023-05-02T07:33:15.905Z,99474.28
2023-05-02T07:35:43.941Z,99479.50
2023-05-02T07:38:10.476Z,99468.53
2023-05-02T07:40:38.448Z,99480.75
2023-05-02T07:43:05.087Z,99479.66
2023-05-02T07:45:31.651Z,99490.34
2023-05-02T07:47:58.271Z,99492.06
2023-05-02T07:50:24.864Z,99499.22
2023-05-02T07:52:51.718Z,99504.81
2023-05-02T07:55:18.559Z,99501.44
2023-05-02T07:57:46.434Z,99491.13
2023-05-02T08:00:14.298Z,99509.22
2023-05-02T08:02:41.434Z,99505.22
2023-05-02T08:05:08.762Z,99507.78
2023-05-02T08:07:35.902Z,99508.19
2023-05-02T08:10:03.805Z,99506.75
2023-05-02T08:12:30.514Z,99524.56
2023-05-02T08:14:58.564Z,99517.41
2023-05-02T08:17:25.114Z,99514.38
2023-05-02T08:19:51.667Z,99516.66
2023-05-02T08:22:18.187Z,99520.16
2023-05-02T08:24:44.784Z,99527.59
2023-05-02T08:27:11.333Z,99532.41
2023-05-02T08:29:37.876Z,99531.94
2023-05-02T08:32:05.966Z,99527.34
2023-05-02T08:34:32.545Z,99536.13
2023-05-02T08:36:59.152Z,99540.13
2023-05-02T08:39:25.867Z,99542.53
2023-05-02T08:41:53.017Z,99533.97
2023-05-02T08:44:19.600Z,99538.44
2023-05-02T08:46:46.543Z,99547.56
2023-05-02T08:49:16.573Z,99542.66
2023-05-02T08:51:45.032Z,99539.38
2023-05-02T08:54:16.753Z,99549.06
2023-05-02T08:56:43.293Z,99551.94
2023-05-02T08:59:09.869Z,99553.75
2023-05-02T09:01:41.470Z,99547.41
2023-05-02T09:04:08.436Z,99545.91
2023-05-02T09:06:36.491Z,99555.56
2023-05-02T09:09:03.350Z,99554.13
2023-05-02T09:11:30.010Z,99561.44
2023-05-02T09:13:56.821Z,99566.75
2023-05-02T09:16:25.414Z,99555.75
2023-05-02T09:18:53.509Z,99564.66
2023-05-02T09:21:21.584Z,99563.78
2023-05-02T09:23:52.585Z,99564.31
2023-05-02T09:26:20.820Z,99579.53
2023-05-02T09:28:48.945Z,99579.63
2023-05-02T09:31:26.923Z,99584.00
2023-05-02T09:34:08.691Z,99590.97
2023-05-02T09:36:40.179Z,99598.06
2023-05-02T09:39:11.181Z,99600.13
2023-05-02T09:41:40.081Z,99601.44
2023-05-02T09:44:09.917Z,99599.97
2023-05-02T09:46:40.009Z,99610.06
2023-05-02T09:49:06.715Z,99612.91
2023-05-02T09:51:33.405Z,99617.75
2023-05-02T09:53:59.968Z,99613.59
2023-05-02T09:56:28.357Z,99616.38
2023-05-02T09:59:12.674Z,99613.19
2023-05-02T10:01:41.019Z,99618.59
2023-05-02T10:04:12.125Z,99617.25
2023-05-02T10:06:38.943Z,99627.75
2023-05-02T10:09:05.595Z,99622.22
2023-05-02T10:11:34.441Z,99619.22
2023-05-02T10:14:01.174Z,99613.47
2023-05-02T10:16:30.614Z,99611.28
2023-05-02T10:19:03.020Z,99611.19
2023-05-02T10:21:31.046Z,99613.06
2023-05-02T10:23:57.727Z,99620.72
2023-05-02T10:26:24.824Z,99623.47
2023-05-02T10:28:55.864Z,99608.06
2023-05-02T10:31:23.252Z,99613.13
2023-05-02T10:33:51.582Z,99625.28
2023-05-02T10:36:22.383Z,99615.00
2023-05-02T10:38:49.823Z,99617.97
2023-05-02T10:41:20.445Z,99627.13
2023-05-02T10:43:48.346Z,99625.09
2023-05-02T10:46:32.461Z,99643.31
2023-05-02T10:49:03.893Z,99642.63
2023-05-02T10:51:31.161Z,99641.75
2023-05-02T10:54:18.790Z,99641.72
2023-05-02T10:57:07.829Z,99641.69
2023-05-02T10:59:36.521Z,99647.41
2023-05-02T11:02:07.227Z,99640.69
2023-05-02T11:05:00.439Z,99640.28
2023-05-02T11:07:27.632Z,99648.19
2023-05-02T11:10:14.302Z,99656.97
2023-05-02T11:12:44.984Z,99648.09
2023-05-02T11:15:14.469Z,99649.16
2023-05-02T11:18:01.702Z,99650.47
2023-05-02T11:20:28.776Z,99654.81
2023-05-02T11:23:18.959Z,99646.66
2023-05-02T11:25:47.196Z,99641.13
2023-05-02T11:28:46.108Z,99647.97
2023-05-02T11:31:49.587Z,99655.22
2023-05-02T11:34:19.085Z,99649.50
2023-05-02T11:36:45.930Z,99660.31
2023-05-02T11:39:20.154Z,99650.78
2023-05-02T11:41:46.863Z,99659.00
2023-05-02T11:44:13.432Z,99663.97
2023-05-02T11:46:40.909Z,99664.81
2023-05-02T11:49:09.199Z,99667.63
2023-05-02T11:51:41.241Z,99670.78
2023-05-02T11:54:08.570Z,99676.66
2023-05-02T11:56:35.353Z,99678.16
2023-05-02T11:59:04.154Z,99706.19
2023-05-02T12:01:32.665Z,99699.41
2023-05-02T12:04:03.476Z,99710.16
2023-05-02T12:06:33.762Z,99702.53
2023-05-02T12:09:09.265Z,99712.19
2023-05-02T12:11:37.203Z,99719.00
2023-05-02T12:14:04.224Z,99720.75
2023-05-02T12:16:31.338Z,99725.81
2023-05-02T12:18:58.454Z,99712.63
2023-05-02T12:21:25.776Z,99720.94
2023-05-02T12:23:52.968Z,99737.50
2023-05-02T12:26:25.255Z,99734.97
2023-05-02T12:28:52.732Z,99741.97
2023-05-02T12:31:22.434Z,99750.19
2023-05-02T12:33:49.595Z,99748.59
2023-05-02T12:36:16.468Z,99753.22
2023-05-02T12:38:48.614Z,99753.94
2023-05-02T12:41:16.956Z,99761.81
2023-05-02T12:43:49.571Z,99759.19
2023-05-02T12:46:18.744Z,99763.75
2023-05-02T12:49:00.205Z,99769.19
2023-05-02T12:51:26.784Z,99776.94
2023-05-02T12:53:53.914Z,99777.09
2023-05-02T12:56:24.098Z,99781.88
2023-05-02T12:58:55.930Z,99780.28
2023-05-02T13:01:41.971Z,99779.72
2023-05-02T13:04:08.628Z,99785.53
2023-05-02T13:06:35.300Z,99780.34
2023-05-02T13:09:01.885Z,99787.50
2023-05-02T13:11:28.608Z,99796.56
2023-05-02T13:13:56.529Z,99795.75
2023-05-02T13:16:23.383Z,99796.22
2023-05-02T13:18:50.275Z,99794.13
2023-05-02T13:21:16.965Z,99799.75
2023-05-02T13:23:43.624Z,99797.22
2023-05-02T13:26:11.147Z,99803.78
2023-05-02T13:28:37.734Z,99800.38
2023-05-02T13:31:05.708Z,99798.63
2023-05-02T13:33:32.334Z,99807.84
2023-05-02T13:35:58.961Z,99801.59
2023-05-02T13:38:25.570Z,99805.81
2023-05-02T13:40:52.136Z,99807.34
2023-05-02T13:43:18.795Z,99817.09
2023-05-02T13:45:45.477Z,99821.47
2023-05-02T13:48:13.426Z,99816.75
2023-05-02T13:50:39.947Z,99820.94
2023-05-02T13:53:06.551Z,99826.31
2023-05-02T13:55:33.295Z,99827.94
2023-05-02T13:57:59.793Z,99823.41
2023-05-02T14:00:26.516Z,99823.91
2023-05-02T14:02:53.151Z,99829.13
2023-05-02T14:05:21.322Z,99821.16
2023-05-02T14:07:47.900Z,99826.66
2023-05-02T14:10:14.542Z,99832.88
2023-05-02T14:12:41.132Z,99837.75
2023-05-02T14:15:08.813Z,99830.50
2023-05-02T14:17:35.469Z,99837.44
2023-05-02T14:20:02.240Z,99840.97
2023-05-02T14:22:30.563Z,99844.25
2023-05-02T14:24:57.179Z,99845.97
2023-05-02T14:27:23.735Z,99861.63
2023-05-02T14:29:50.340Z,99855.34
2023-05-02T14:32:16.959Z,99853.59
2023-05-02T14:34:43.519Z,99852.13
2023-05-02T14:37:10.074Z,99854.00
2023-05-02T14:39:37.975Z,99853.91
2023-05-02T14:42:04.681Z,99862.59
2023-05-02T14:44:31.576Z,99869.00
2023-05-02T14:46:58.263Z,99863.22
2023-05-02T14:49:24.887Z,99862.41
2023-05-02T14:51:51.971Z,99860.63
2023-05-02T14:54:18.558Z,99865.59
2023-05-02T14:56:46.442Z,99865.25
2023-05-02T14:59:13.152Z,99866.34
2023-05-02T15:01:39.928Z,99876.50
2023-05-02T15:04:08.072Z,99875.88
2023-05-02T15:06:35.780Z,99874.81
2023-05-02T15:09:02.859Z,99874.13
2023-05-02T15:11:29.416Z,99869.81
2023-05-02T15:13:59.215Z,99875.28
2023-05-02T15:16:26.498Z,99882.31
2023-05-02T15:18:53.056Z,99887.25
2023-05-02T15:21:19.641Z,99882.00
2023-05-02T15:23:47.765Z,99880.06
2023-05-02T15:26:14.411Z,99875.94
2023-05-02T15:28:40.994Z,99876.38
2023-05-02T15:31:08.915Z,99879.09
2023-05-02T15:33:35.532Z,99880.22
2023-05-02T15:36:02.131Z,99878.69
2023-05-02T15:38:28.712Z,99880.53
2023-05-02T15:40:56.359Z,99888.34
2023-05-02T15:43:23.424Z,99892.03
2023-05-02T15:45:53.590Z,99883.19
2023-05-02T15:48:22.092Z,99893.34
2023-05-02T15:50:48.767Z,99893.59
2023-05-02T15:53:16.469Z,99889.44
2023-05-02T15:55:43.777Z,99894.03
2023-05-02T15:58:10.506Z,99892.59
2023-05-02T16:00:37.051Z,99895.53
2023-05-02T16:03:04.226Z,99903.88
2023-05-02T16:05:32.283Z,99908.50
2023-05-02T16:07:58.925Z,99903.84
2023-05-02T16:10:25.679Z,99908.19
2023-05-02T16:12:52.489Z,99902.72
2023-05-02T16:15:19.104Z,99910.13
2023-05-02T16:17:45.691Z,99913.34
2023-05-02T16:20:12.925Z,99900.63
2023-05-02T16:22:43.004Z,99914.13
2023-05-02T16:25:09.618Z,99915.91
2023-05-02T16:27:36.226Z,99918.94
2023-05-02T16:30:03.209Z,99913.66
2023-05-02T16:32:30.066Z,99920.06
2023-05-02T16:34:56.710Z,99920.41
2023-05-02T16:37:23.329Z,99915.25
2023-05-02T16:39:51.205Z,99911.97
2023-05-02T16:42:17.721Z,99914.38
2023-05-02T16:44:44.405Z,99905.84
2023-05-02T16:47:10.951Z,99910.81
2023-05-02T16:49:37.513Z,99910.97
2023-05-02T16:52:04.345Z,99909.88
2023-05-02T16:54:30.926Z,99915.63
2023-05-02T16:56:58.869Z,99910.03
2023-05-02T16:59:25.380Z,99919.31
2023-05-02T17:01:51.992Z,99901.13
2023-05-02T17:04:18.494Z,99918.19
2023-05-02T17:06:45.112Z,99918.28
2023-05-02T17:09:11.847Z,99918.91
2023-05-02T17:11:38.350Z,99923.88
2023-05-02T17:14:06.215Z,99921.13
2023-05-02T17:16:32.771Z,99924.84
2023-05-02T17:18:59.370Z,99930.59
2023-05-02T17:21:26.391Z,99924.75
2023-05-02T17:23:53.885Z,99933.41
2023-05-02T17:26:20.447Z,99913.66
2023-05-02T17:28:46.987Z,99925.06
2023-05-02T17:31:14.892Z,99941.06
2023-05-02T17:33:41.463Z,99935.75
2023-05-02T17:36:08.422Z,99938.28
2023-05-02T17:38:34.983Z,99953.50
2023-05-02T17:41:01.554Z,99947.88
2023-05-02T17:43:28.311Z,99945.00
2023-05-02T17:45:54.926Z,99953.19
2023-05-02T17:48:22.921Z,99955.59
2023-05-02T17:50:49.540Z,99960.38
2023-05-02T17:53:16.268Z,99959.19
2023-05-02T17:55:42.960Z,99964.88
2023-05-02T17:58:09.541Z,99967.34
2023-05-02T18:00:36.087Z,99973.41
2023-05-02T18:03:02.687Z,99968.72
2023-05-02T18:05:30.674Z,99980.41
2023-05-02T18:07:57.247Z,99977.69
2023-05-02T18:10:23.935Z,99985.06
2023-05-02T18:12:50.553Z,99981.34
2023-05-02T18:15:17.301Z,99978.97
2023-05-02T18:17:43.914Z,99986.31
2023-05-02T18:20:10.813Z,99986.03
2023-05-02T18:22:38.764Z,99983.00
2023-05-02T18:25:06.121Z,99987.22
2023-05-02T18:27:32.896Z,99984.31
2023-05-02T18:29:59.780Z,99993.03
2023-05-02T18:32:26.380Z,99988.59
2023-05-02T18:34:52.975Z,99985.19
2023-05-02T18:37:19.556Z,99995.53
2023-05-02T18:39:47.432Z,99994.59
2023-05-02T18:42:14.100Z,99995.88
2023-05-02T18:44:40.661Z,99997.13
2023-05-02T18:47:07.391Z,99992.22
2023-05-02T18:49:33.946Z,100000.66
2023-05-02T18:52:00.449Z,100006.38
2023-05-02T18:54:27.001Z,99996.41
2023-05-02T18:56:54.864Z,100005.75
2023-05-02T18:59:21.472Z,100005.31
2023-05-02T19:01:48.086Z,100015.94
2023-05-02T19:04:14.651Z,100009.28
2023-05-02T19:06:41.391Z,100008.25
2023-05-02T19:09:08.105Z,100015.59
2023-05-02T19:11:34.640Z,100012.44
2023-05-02T19:14:02.584Z,100018.88
2023-05-02T19:16:29.427Z,100015.50
2023-05-02T19:18:56.016Z,100031.63
2023-05-02T19:21:22.541Z,100028.94
2023-05-02T19:23:49.820Z,100022.53
2023-05-02T19:26:17.562Z,100033.09
2023-05-02T19:28:44.846Z,100027.88
2023-05-02T19:31:15.467Z,100032.88
2023-05-02T19:33:42.240Z,100043.53
2023-05-02T19:36:08.788Z,100037.97
2023-05-02T19:38:35.349Z,100042.13
2023-05-02T19:41:02.469Z,100047.34
2023-05-02T19:43:29.019Z,100038.50
2023-05-02T19:45:55.637Z,100046.50
2023-05-02T19:48:23.893Z,100052.50
2023-05-02T19:50:50.496Z,100056.31
2023-05-02T19:53:17.036Z,100051.78
2023-05-02T19:55:43.640Z,100060.22
2023-05-02T19:58:10.273Z,100061.63
2023-05-02T20:00:37.198Z,100063.34
2023-05-02T20:03:04.101Z,100070.41
2023-05-02T20:05:32.441Z,100065.28
2023-05-02T20:07:59.009Z,100064.75
2023-05-02T20:10:25.571Z,100062.03
2023-05-02T20:12:52.153Z,100063.16
2023-05-02T20:15:18.704Z,100061.53
2023-05-02T20:17:45.325Z,100061.84
2023-05-02T20:20:12.517Z,100062.97
2023-05-02T20:22:40.552Z,100061.63
2023-05-02T20:25:09.174Z,100070.56
2023-05-02T20:27:35.752Z,100066.81
2023-05-02T20:30:02.733Z,100065.50
2023-05-02T20:32:29.772Z,100072.78
2023-05-02T20:34:56.605Z,100082.00
2023-05-02T20:37:23.128Z,100077.44
2023-05-02T20:39:51.105Z,100089.31
2023-05-02T20:42:17.742Z,100096.34
2023-05-02T20:44:44.305Z,100094.75
2023-05-02T20:47:10.827Z,100101.78
2023-05-02T20:49:37.529Z,100099.09
2023-05-02T20:52:04.728Z,100095.31
2023-05-02T20:54:31.306Z,100097.75
2023-05-02T20:56:59.387Z,100105.06
2023-05-02T20:59:25.889Z,100101.56
2023-05-02T21:01:52.485Z,100099.66
2023-05-02T21:04:19.068Z,100108.31
2023-05-02T21:06:47.026Z,100101.03
2023-05-02T21:09:13.864Z,100099.41
2023-05-02T21:11:40.471Z,100105.59
2023-05-02T21:14:08.503Z,100111.78
2023-05-02T21:16:35.138Z,100111.50
2023-05-02T21:19:02.074Z,100111.53
2023-05-02T21:21:28.654Z,100110.94
2023-05-02T21:23:55.374Z,100105.56
2023-05-02T21:26:21.942Z,100107.69
2023-05-02T21:28:48.448Z,100113.06
2023-05-02T21:31:16.464Z,100116.56
2023-05-02T21:33:43.189Z,100119.78
2023-05-02T21:36:10.332Z,100112.50
2023-05-02T21:38:37.080Z,100108.16
2023-05-02T21:41:04.795Z,100109.22
2023-05-02T21:43:34.324Z,100109.22
2023-05-02T21:46:01.034Z,100107.81
2023-05-02T21:48:29.106Z,100115.59
2023-05-02T21:50:55.659Z,100121.22
2023-05-02T21:53:22.220Z,100119.78
2023-05-02T21:55:48.754Z,100123.47
2023-05-02T21:58:15.508Z,100122.06
2023-05-02T22:00:42.217Z,100124.69
2023-05-02T22:03:11.631Z,100123.28
2023-05-02T22:05:41.097Z,100131.56
2023-05-02T22:08:08.497Z,100130.47
2023-05-02T22:10:36.817Z,100117.78
2023-05-02T22:13:03.500Z,100123.88
2023-05-02T22:15:30.305Z,100118.22
2023-05-02T22:17:56.965Z,100121.66
2023-05-02T22:20:25.547Z,100124.00
2023-05-02T22:23:01.105Z,100127.72
2023-05-02T22:25:27.668Z,100127.66
2023-05-02T22:27:54.545Z,100132.19
2023-05-02T22:30:21.250Z,100133.50
2023-05-02T22:32:48.052Z,100139.41
2023-05-02T22:35:14.820Z,100142.03
2023-05-02T22:37:41.313Z,100139.56
2023-05-02T22:40:10.630Z,100130.66
2023-05-02T22:42:37.367Z,100121.75
2023-05-02T22:45:04.717Z,100129.75
2023-05-02T22:47:31.245Z,100129.69
2023-05-02T22:49:57.791Z,100130.44
2023-05-02T22:52:24.356Z,100131.75
2023-05-02T22:54:51.076Z,100129.59
2023-05-02T22:57:19.173Z,100125.75
2023-05-02T22:59:45.830Z,100132.97
2023-05-02T23:02:12.430Z,100130.19
2023-05-02T23:04:39.211Z,100134.47
2023-05-02T23:07:05.728Z,100128.50
2023-05-02T23:09:32.356Z,100128.47
2023-05-02T23:11:58.922Z,100132.94
2023-05-02T23:14:26.807Z,100129.16
2023-05-02T23:16:53.380Z,100122.06
2023-05-02T23:19:20.030Z,100125.00
2023-05-02T23:21:46.584Z,100117.44
2023-05-02T23:24:13.337Z,100121.69
2023-05-02T23:26:40.671Z,100128.06
2023-05-02T23:29:07.361Z,100126.66
2023-05-02T23:31:35.290Z,100121.00
2023-05-02T23:34:02.065Z,100126.84
2023-05-02T23:36:28.671Z,100131.91
2023-05-02T23:38:55.569Z,100136.72
2023-05-02T23:41:22.210Z,100136.06
2023-05-02T23:43:48.967Z,100137.38
2023-05-02T23:46:15.642Z,100142.91
2023-05-02T23:48:43.710Z,100138.03
2023-05-02T23:51:10.349Z,100143.56
2023-05-02T23:53:37.621Z,100137.88
2023-05-02T23:56:04.678Z,100134.88
2023-05-02T23:58:31.381Z,100138.59
